sensor_id;sensor_type;location;lat;lon;timestamp;pressure;altitude;pressure_sealevel;temperature;humidity
56042;BME280;48756;41.374;2.066;2023-02-23T00:01:16;100970.78;;;11.80;88.00
56042;BME280;48756;41.374;2.066;2023-02-23T00:03:43;100979.31;;;11.92;85.80
56042;BME280;48756;41.374;2.066;2023-02-23T00:06:10;100972.28;;;11.98;85.58
56042;BME280;48756;41.374;2.066;2023-02-23T00:08:37;100976.59;;;12.05;85.70
56042;BME280;48756;41.374;2.066;2023-02-23T00:11:04;100973.00;;;12.12;85.76
56042;BME280;48756;41.374;2.066;2023-02-23T00:13:34;100966.09;;;12.08;85.82
56042;BME280;48756;41.374;2.066;2023-02-23T00:16:12;100968.81;;;11.97;85.75
56042;BME280;48756;41.374;2.066;2023-02-23T00:18:48;100956.03;;;11.71;87.76
56042;BME280;48756;41.374;2.066;2023-02-23T00:21:16;100950.06;;;11.60;87.79
56042;BME280;48756;41.374;2.066;2023-02-23T00:23:47;100954.59;;;11.40;88.89
56042;BME280;48756;41.374;2.066;2023-02-23T00:26:13;100951.94;;;11.44;90.58
56042;BME280;48756;41.374;2.066;2023-02-23T00:28:40;100954.47;;;11.50;88.69
56042;BME280;48756;41.374;2.066;2023-02-23T00:31:06;100946.75;;;11.41;90.50
56042;BME280;48756;41.374;2.066;2023-02-23T00:33:32;100935.50;;;11.38;89.97
56042;BME280;48756;41.374;2.066;2023-02-23T00:36:12;100938.91;;;11.43;89.84
56042;BME280;48756;41.374;2.066;2023-02-23T00:38:40;100940.72;;;11.38;90.30
56042;BME280;48756;41.374;2.066;2023-02-23T00:41:11;100937.25;;;11.37;88.78
56042;BME280;48756;41.374;2.066;2023-02-23T00:43:39;100925.91;;;11.38;90.04
56042;BME280;48756;41.374;2.066;2023-02-23T00:46:18;100915.59;;;11.26;90.21
56042;BME280;48756;41.374;2.066;2023-02-23T00:48:49;100916.44;;;11.26;90.66
56042;BME280;48756;41.374;2.066;2023-02-23T00:51:16;100917.94;;;11.50;89.09
56042;BME280;48756;41.374;2.066;2023-02-23T00:53:43;100907.34;;;11.67;89.18
56042;BME280;48756;41.374;2.066;2023-02-23T00:56:10;100907.41;;;11.61;89.62
56042;BME280;48756;41.374;2.066;2023-02-23T00:58:36;100911.59;;;11.76;90.23
56042;BME280;48756;41.374;2.066;2023-02-23T01:01:08;100910.59;;;11.89;89.32
56042;BME280;48756;41.374;2.066;2023-02-23T01:03:34;100913.00;;;12.07;87.33
56042;BME280;48756;41.374;2.066;2023-02-23T01:06:00;100911.31;;;12.03;87.48
56042;BME280;48756;41.374;2.066;2023-02-23T01:08:30;100918.28;;;12.03;87.88
56042;BME280;48756;41.374;2.066;2023-02-23T01:10:56;100913.53;;;11.60;88.96
56042;BME280;48756;41.374;2.066;2023-02-23T01:13:23;100915.56;;;11.27;87.69
56042;BME280;48756;41.374;2.066;2023-02-23T01:15:49;100917.56;;;10.99;90.61
56042;BME280;48756;41.374;2.066;2023-02-23T01:18:18;100908.09;;;10.86;91.12
56042;BME280;48756;41.374;2.066;2023-02-23T01:20:44;100915.97;;;10.80;91.89
56042;BME280;48756;41.374;2.066;2023-02-23T01:23:11;100907.47;;;10.55;92.14
56042;BME280;48756;41.374;2.066;2023-02-23T01:25:38;100905.69;;;10.59;94.42
56042;BME280;48756;41.374;2.066;2023-02-23T01:28:03;100904.84;;;10.58;94.43
56042;BME280;48756;41.374;2.066;2023-02-23T01:30:29;100897.81;;;10.69;92.97
56042;BME280;48756;41.374;2.066;2023-02-23T01:32:55;100892.38;;;10.98;91.92
56042;BME280;48756;41.374;2.066;2023-02-23T01:35:21;100887.97;;;11.05;91.27
56042;BME280;48756;41.374;2.066;2023-02-23T01:37:46;100880.00;;;11.20;90.51
56042;BME280;48756;41.374;2.066;2023-02-23T01:40:20;100873.81;;;11.29;89.35
56042;BME280;48756;41.374;2.066;2023-02-23T01:43:14;100866.84;;;11.31;89.01
56042;BME280;48756;41.374;2.066;2023-02-23T01:45:42;100867.81;;;11.21;89.54
56042;BME280;48756;41.374;2.066;2023-02-23T01:48:12;100863.41;;;11.27;89.47
56042;BME280;48756;41.374;2.066;2023-02-23T01:50:44;100857.25;;;11.31;88.96
56042;BME280;48756;41.374;2.066;2023-02-23T01:53:10;100862.28;;;11.50;88.32
56042;BME280;48756;41.374;2.066;2023-02-23T01:55:36;100848.41;;;11.48;87.12
56042;BME280;48756;41.374;2.066;2023-02-23T01:58:09;100845.81;;;11.46;87.57
56042;BME280;48756;41.374;2.066;2023-02-23T02:00:46;100842.56;;;11.24;88.70
56042;BME280;48756;41.374;2.066;2023-02-23T02:03:18;100846.91;;;11.24;88.43
56042;BME280;48756;41.374;2.066;2023-02-23T02:05:48;100844.53;;;11.01;88.11
56042;BME280;48756;41.374;2.066;2023-02-23T02:08:15;100849.09;;;10.76;91.06
56042;BME280;48756;41.374;2.066;2023-02-23T02:10:43;100855.81;;;11.03;90.39
56042;BME280;48756;41.374;2.066;2023-02-23T02:13:14;100848.81;;;11.10;90.10
56042;BME280;48756;41.374;2.066;2023-02-23T02:15:57;100850.47;;;11.17;89.47
56042;BME280;48756;41.374;2.066;2023-02-23T02:21:35;100841.56;;;11.38;88.63
56042;BME280;48756;41.374;2.066;2023-02-23T02:24:53;100836.53;;;11.19;88.05
56042;BME280;48756;41.374;2.066;2023-02-23T02:38:34;100830.44;;;11.22;89.82
56042;BME280;48756;41.374;2.066;2023-02-23T02:46:09;100821.66;;;11.27;87.27
56042;BME280;48756;41.374;2.066;2023-02-23T02:51:26;100818.25;;;11.21;87.90
56042;BME280;48756;41.374;2.066;2023-02-23T02:56:40;100809.56;;;11.22;87.25
56042;BME280;48756;41.374;2.066;2023-02-23T02:59:12;100795.72;;;11.17;88.30
56042;BME280;48756;41.374;2.066;2023-02-23T03:01:58;100787.28;;;10.92;89.26
56042;BME280;48756;41.374;2.066;2023-02-23T03:04:42;100784.69;;;10.92;89.93
56042;BME280;48756;41.374;2.066;2023-02-23T03:07:33;100784.34;;;11.21;88.61
56042;BME280;48756;41.374;2.066;2023-02-23T03:10:54;100781.66;;;11.28;88.10
56042;BME280;48756;41.374;2.066;2023-02-23T03:14:27;100777.28;;;11.33;88.01
56042;BME280;48756;41.374;2.066;2023-02-23T03:17:03;100770.22;;;11.40;88.38
56042;BME280;48756;41.374;2.066;2023-02-23T03:19:55;100761.50;;;11.41;88.19
56042;BME280;48756;41.374;2.066;2023-02-23T03:22:57;100764.00;;;11.50;87.02
56042;BME280;48756;41.374;2.066;2023-02-23T03:29:08;100752.66;;;11.51;87.16
56042;BME280;48756;41.374;2.066;2023-02-23T03:32:07;100755.13;;;11.63;85.96
56042;BME280;48756;41.374;2.066;2023-02-23T03:35:03;100754.13;;;11.74;85.73
56042;BME280;48756;41.374;2.066;2023-02-23T03:38:05;100749.78;;;11.73;85.90
56042;BME280;48756;41.374;2.066;2023-02-23T03:40:53;100754.19;;;11.69;85.37
56042;BME280;48756;41.374;2.066;2023-02-23T03:43:48;100749.00;;;11.66;85.97
56042;BME280;48756;41.374;2.066;2023-02-23T03:46:34;100746.47;;;11.61;86.08
56042;BME280;48756;41.374;2.066;2023-02-23T03:49:19;100752.63;;;11.56;85.13
56042;BME280;48756;41.374;2.066;2023-02-23T03:52:13;100757.06;;;11.49;85.90
56042;BME280;48756;41.374;2.066;2023-02-23T03:55:02;100761.38;;;11.50;86.11
56042;BME280;48756;41.374;2.066;2023-02-23T03:57:50;100756.13;;;11.53;86.63
56042;BME280;48756;41.374;2.066;2023-02-23T04:00:42;100745.97;;;11.30;86.43
56042;BME280;48756;41.374;2.066;2023-02-23T04:03:29;100751.06;;;11.43;86.35
56042;BME280;48756;41.374;2.066;2023-02-23T04:06:14;100755.41;;;11.42;86.58
56042;BME280;48756;41.374;2.066;2023-02-23T04:09:03;100756.44;;;11.29;88.18
56042;BME280;48756;41.374;2.066;2023-02-23T04:12:13;100753.94;;;11.20;88.08
56042;BME280;48756;41.374;2.066;2023-02-23T04:15:15;100758.06;;;11.39;86.30
56042;BME280;48756;41.374;2.066;2023-02-23T04:17:43;100744.47;;;11.13;87.81
56042;BME280;48756;41.374;2.066;2023-02-23T04:20:11;100743.66;;;11.09;87.50
56042;BME280;48756;41.374;2.066;2023-02-23T04:22:37;100732.41;;;11.01;89.50
56042;BME280;48756;41.374;2.066;2023-02-23T04:25:03;100740.91;;;11.20;87.57
56042;BME280;48756;41.374;2.066;2023-02-23T04:27:30;100732.09;;;11.27;86.79
56042;BME280;48756;41.374;2.066;2023-02-23T04:29:56;100732.84;;;11.38;87.53
56042;BME280;48756;41.374;2.066;2023-02-23T04:32:22;100727.88;;;11.20;87.95
56042;BME280;48756;41.374;2.066;2023-02-23T04:34:47;100728.53;;;11.35;87.18
56042;BME280;48756;41.374;2.066;2023-02-23T04:37:13;100730.72;;;10.98;89.15
56042;BME280;48756;41.374;2.066;2023-02-23T04:39:39;100729.75;;;11.07;89.25
56042;BME280;48756;41.374;2.066;2023-02-23T04:42:10;100722.34;;;11.43;87.04
56042;BME280;48756;41.374;2.066;2023-02-23T04:44:38;100728.44;;;11.43;86.96
56042;BME280;48756;41.374;2.066;2023-02-23T04:47:04;100726.56;;;11.53;86.02
56042;BME280;48756;41.374;2.066;2023-02-23T04:49:30;100734.53;;;11.42;87.46
56042;BME280;48756;41.374;2.066;2023-02-23T04:51:55;100730.28;;;11.37;88.02
56042;BME280;48756;41.374;2.066;2023-02-23T04:54:21;100717.75;;;11.61;87.14
56042;BME280;48756;41.374;2.066;2023-02-23T04:56:46;100716.03;;;11.60;85.57
56042;BME280;48756;41.374;2.066;2023-02-23T04:59:12;100712.56;;;11.60;85.04
56042;BME280;48756;41.374;2.066;2023-02-23T05:01:37;100716.78;;;11.69;85.94
56042;BME280;48756;41.374;2.066;2023-02-23T05:04:03;100713.28;;;11.70;85.60
56042;BME280;48756;41.374;2.066;2023-02-23T05:06:29;100719.34;;;11.72;85.32
56042;BME280;48756;41.374;2.066;2023-02-23T05:08:55;100714.06;;;11.79;85.30
56042;BME280;48756;41.374;2.066;2023-02-23T05:11:20;100714.91;;;11.77;84.60
56042;BME280;48756;41.374;2.066;2023-02-23T05:13:46;100709.75;;;11.72;86.67
56042;BME280;48756;41.374;2.066;2023-02-23T05:16:11;100710.50;;;11.85;85.74
56042;BME280;48756;41.374;2.066;2023-02-23T05:18:37;100707.94;;;11.80;86.37
56042;BME280;48756;41.374;2.066;2023-02-23T05:21:04;100705.28;;;11.83;86.48
56042;BME280;48756;41.374;2.066;2023-02-23T05:23:32;100710.41;;;11.89;84.78
56042;BME280;48756;41.374;2.066;2023-02-23T05:26:04;100710.34;;;11.94;84.41
56042;BME280;48756;41.374;2.066;2023-02-23T05:28:31;100714.66;;;11.96;85.70
56042;BME280;48756;41.374;2.066;2023-02-23T05:30:57;100715.44;;;12.03;85.03
56042;BME280;48756;41.374;2.066;2023-02-23T05:33:22;100705.94;;;11.96;84.31
56042;BME280;48756;41.374;2.066;2023-02-23T05:35:48;100702.59;;;11.88;84.70
56042;BME280;48756;41.374;2.066;2023-02-23T05:38:13;100704.47;;;11.77;85.09
56042;BME280;48756;41.374;2.066;2023-02-23T05:40:39;100706.03;;;11.91;83.16
56042;BME280;48756;41.374;2.066;2023-02-23T05:43:05;100700.78;;;11.93;84.88
56042;BME280;48756;41.374;2.066;2023-02-23T05:45:33;100692.28;;;11.80;84.70
56042;BME280;48756;41.374;2.066;2023-02-23T05:47:58;100698.13;;;11.94;84.97
56042;BME280;48756;41.374;2.066;2023-02-23T05:50:24;100692.94;;;11.93;84.33
56042;BME280;48756;41.374;2.066;2023-02-23T05:52:50;100694.81;;;11.85;84.92
56042;BME280;48756;41.374;2.066;2023-02-23T05:55:16;100690.44;;;11.87;83.70
56042;BME280;48756;41.374;2.066;2023-02-23T05:57:42;100688.78;;;11.83;85.61
56042;BME280;48756;41.374;2.066;2023-02-23T06:00:09;100687.91;;;11.82;84.02
56042;BME280;48756;41.374;2.066;2023-02-23T06:02:35;100682.63;;;11.85;83.66
56042;BME280;48756;41.374;2.066;2023-02-23T06:05:01;100679.13;;;11.86;83.87
56042;BME280;48756;41.374;2.066;2023-02-23T06:07:26;100671.75;;;11.56;85.01
56042;BME280;48756;41.374;2.066;2023-02-23T06:09:52;100672.66;;;11.50;85.24
56042;BME280;48756;41.374;2.066;2023-02-23T06:12:18;100687.22;;;11.02;88.24
56042;BME280;48756;41.374;2.066;2023-02-23T06:14:43;100677.50;;;11.16;86.05
56042;BME280;48756;41.374;2.066;2023-02-23T06:17:09;100679.06;;;11.28;86.57
56042;BME280;48756;41.374;2.066;2023-02-23T06:19:34;100685.25;;;11.21;85.99
56042;BME280;48756;41.374;2.066;2023-02-23T06:22:00;100680.66;;;11.40;85.86
56042;BME280;48756;41.374;2.066;2023-02-23T06:24:25;100680.66;;;11.40;86.37
56042;BME280;48756;41.374;2.066;2023-02-23T06:26:51;100679.75;;;11.42;86.09
56042;BME280;48756;41.374;2.066;2023-02-23T06:29:16;100678.13;;;11.33;85.42
56042;BME280;48756;41.374;2.066;2023-02-23T06:31:42;100674.72;;;11.28;86.68
56042;BME280;48756;41.374;2.066;2023-02-23T06:34:08;100677.31;;;11.28;86.04
56042;BME280;48756;41.374;2.066;2023-02-23T06:36:34;100684.28;;;11.28;85.76
56042;BME280;48756;41.374;2.066;2023-02-23T06:39:00;100679.88;;;11.33;84.69
56042;BME280;48756;41.374;2.066;2023-02-23T06:41:26;100677.38;;;11.24;85.97
56042;BME280;48756;41.374;2.066;2023-02-23T06:43:51;100678.16;;;11.32;85.43
56042;BME280;48756;41.374;2.066;2023-02-23T06:46:18;100675.50;;;11.35;85.85
56042;BME280;48756;41.374;2.066;2023-02-23T06:48:43;100674.72;;;11.28;85.43
56042;BME280;48756;41.374;2.066;2023-02-23T06:51:09;100682.56;;;11.27;87.09
56042;BME280;48756;41.374;2.066;2023-02-23T06:53:34;100691.16;;;11.35;86.57
56042;BME280;48756;41.374;2.066;2023-02-23T06:56:00;100692.91;;;11.31;87.01
56042;BME280;48756;41.374;2.066;2023-02-23T06:58:26;100691.38;;;11.18;89.50
56042;BME280;48756;41.374;2.066;2023-02-23T07:00:54;100696.47;;;11.26;87.46
56042;BME280;48756;41.374;2.066;2023-02-23T07:03:21;100689.31;;;11.42;87.62
56042;BME280;48756;41.374;2.066;2023-02-23T07:05:47;100683.06;;;11.55;87.10
56042;BME280;48756;41.374;2.066;2023-02-23T07:08:15;100682.72;;;11.76;85.97
56042;BME280;48756;41.374;2.066;2023-02-23T07:10:41;100685.00;;;12.02;84.73
56042;BME280;48756;41.374;2.066;2023-02-23T07:13:06;100685.69;;;12.12;84.30
56042;BME280;48756;41.374;2.066;2023-02-23T07:15:34;100682.06;;;12.19;84.26
56042;BME280;48756;41.374;2.066;2023-02-23T07:17:59;100688.78;;;11.81;86.12
56042;BME280;48756;41.374;2.066;2023-02-23T07:20:25;100692.56;;;12.16;84.65
56042;BME280;48756;41.374;2.066;2023-02-23T07:22:50;100694.56;;;12.02;84.27
56042;BME280;48756;41.374;2.066;2023-02-23T07:25:16;100695.97;;;12.22;84.66
56042;BME280;48756;41.374;2.066;2023-02-23T07:27:42;100704.16;;;12.01;86.47
56042;BME280;48756;41.374;2.066;2023-02-23T07:30:10;100705.53;;;12.23;85.27
56042;BME280;48756;41.374;2.066;2023-02-23T07:32:35;100710.28;;;12.51;83.70
56042;BME280;48756;41.374;2.066;2023-02-23T07:35:01;100718.22;;;12.46;83.90
56042;BME280;48756;41.374;2.066;2023-02-23T07:37:30;100715.63;;;12.45;84.40
56042;BME280;48756;41.374;2.066;2023-02-23T07:39:56;100714.81;;;12.40;84.25
56042;BME280;48756;41.374;2.066;2023-02-23T07:42:21;100716.88;;;12.21;84.94
56042;BME280;48756;41.374;2.066;2023-02-23T07:44:47;100715.47;;;11.99;86.76
56042;BME280;48756;41.374;2.066;2023-02-23T07:47:12;100709.06;;;12.19;85.35
56042;BME280;48756;41.374;2.066;2023-02-23T07:49:37;100701.88;;;12.32;84.99
56042;BME280;48756;41.374;2.066;2023-02-23T07:52:06;100701.66;;;12.46;84.61
56042;BME280;48756;41.374;2.066;2023-02-23T07:54:31;100701.22;;;12.19;83.36
56042;BME280;48756;41.374;2.066;2023-02-23T07:56:57;100699.78;;;12.02;85.70
56042;BME280;48756;41.374;2.066;2023-02-23T07:59:23;100699.25;;;11.80;86.56
56042;BME280;48756;41.374;2.066;2023-02-23T08:01:49;100697.72;;;11.63;89.08
56042;BME280;48756;41.374;2.066;2023-02-23T08:04:16;100698.41;;;11.79;87.23
56042;BME280;48756;41.374;2.066;2023-02-23T08:06:41;100698.59;;;12.21;85.88
56042;BME280;48756;41.374;2.066;2023-02-23T08:09:07;100699.75;;;12.03;87.71
56042;BME280;48756;41.374;2.066;2023-02-23T08:11:32;100702.31;;;12.06;87.09
56042;BME280;48756;41.374;2.066;2023-02-23T08:13:58;100699.16;;;12.38;86.16
56042;BME280;48756;41.374;2.066;2023-02-23T08:16:32;100704.81;;;12.12;86.96
56042;BME280;48756;41.374;2.066;2023-02-23T08:19:01;100709.34;;;12.03;86.59
56042;BME280;48756;41.374;2.066;2023-02-23T08:21:27;100704.81;;;12.12;85.98
56042;BME280;48756;41.374;2.066;2023-02-23T08:23:54;100704.47;;;12.34;86.13
56042;BME280;48756;41.374;2.066;2023-02-23T08:26:20;100691.63;;;12.71;84.10
56042;BME280;48756;41.374;2.066;2023-02-23T08:28:46;100688.34;;;12.58;85.27
56042;BME280;48756;41.374;2.066;2023-02-23T08:31:13;100701.41;;;12.09;86.62
56042;BME280;48756;41.374;2.066;2023-02-23T08:33:40;100711.50;;;12.30;87.33
56042;BME280;48756;41.374;2.066;2023-02-23T08:36:06;100719.22;;;12.38;86.62
56042;BME280;48756;41.374;2.066;2023-02-23T08:38:32;100721.44;;;12.08;87.83
56042;BME280;48756;41.374;2.066;2023-02-23T08:41:01;100718.81;;;12.10;87.09
56042;BME280;48756;41.374;2.066;2023-02-23T08:43:30;100711.88;;;12.58;84.69
56042;BME280;48756;41.374;2.066;2023-02-23T08:45:58;100704.53;;;12.31;85.00
56042;BME280;48756;41.374;2.066;2023-02-23T08:48:23;100703.34;;;11.96;86.16
56042;BME280;48756;41.374;2.066;2023-02-23T08:50:55;100702.16;;;12.15;86.80
56042;BME280;48756;41.374;2.066;2023-02-23T08:53:20;100712.72;;;12.60;86.10
56042;BME280;48756;41.374;2.066;2023-02-23T08:55:47;100716.56;;;12.39;86.16
56042;BME280;48756;41.374;2.066;2023-02-23T08:58:12;100708.41;;;12.57;84.99
56042;BME280;48756;41.374;2.066;2023-02-23T09:00:38;100703.22;;;12.56;85.41
56042;BME280;48756;41.374;2.066;2023-02-23T09:03:05;100703.81;;;12.72;84.06
56042;BME280;48756;41.374;2.066;2023-02-23T09:05:31;100707.84;;;12.86;83.31
56042;BME280;48756;41.374;2.066;2023-02-23T09:08:02;100708.22;;;13.11;82.40
56042;BME280;48756;41.374;2.066;2023-02-23T09:10:28;100713.03;;;12.91;84.31
56042;BME280;48756;41.374;2.066;2023-02-23T09:12:54;100689.66;;;13.27;82.77
56042;BME280;48756;41.374;2.066;2023-02-23T09:15:20;100686.13;;;13.28;82.33
56042;BME280;48756;41.374;2.066;2023-02-23T09:17:45;100678.41;;;13.22;81.83
56042;BME280;48756;41.374;2.066;2023-02-23T09:20:13;100686.47;;;13.53;82.06
56042;BME280;48756;41.374;2.066;2023-02-23T09:22:41;100693.16;;;14.01;78.52
56042;BME280;48756;41.374;2.066;2023-02-23T09:25:14;100684.53;;;14.33;78.91
56042;BME280;48756;41.374;2.066;2023-02-23T09:27:43;100682.13;;;14.60;77.19
56042;BME280;48756;41.374;2.066;2023-02-23T09:30:09;100684.03;;;13.84;79.94
56042;BME280;48756;41.374;2.066;2023-02-23T09:32:35;100683.13;;;13.85;80.11
56042;BME280;48756;41.374;2.066;2023-02-23T09:35:03;100688.19;;;14.28;79.19
56042;BME280;48756;41.374;2.066;2023-02-23T09:37:29;100685.25;;;14.04;78.17
56042;BME280;48756;41.374;2.066;2023-02-23T09:39:54;100684.72;;;14.26;79.32
56042;BME280;48756;41.374;2.066;2023-02-23T09:42:37;100686.34;;;14.31;77.65
56042;BME280;48756;41.374;2.066;2023-02-23T09:45:17;100678.19;;;14.08;78.38
56042;BME280;48756;41.374;2.066;2023-02-23T09:48:07;100691.09;;;14.16;79.05
56042;BME280;48756;41.374;2.066;2023-02-23T09:50:38;100681.59;;;14.46;76.68
56042;BME280;48756;41.374;2.066;2023-02-23T09:55:40;100673.69;;;15.11;75.06
56042;BME280;48756;41.374;2.066;2023-02-23T09:58:25;100675.81;;;15.27;74.36
56042;BME280;48756;41.374;2.066;2023-02-23T10:01:16;100671.66;;;15.50;73.20
56042;BME280;48756;41.374;2.066;2023-02-23T10:06:35;100667.25;;;15.50;72.40
56042;BME280;48756;41.374;2.066;2023-02-23T10:11:52;100675.47;;;15.69;72.04
56042;BME280;48756;41.374;2.066;2023-02-23T10:22:50;100667.09;;;14.97;74.77
56042;BME280;48756;41.374;2.066;2023-02-23T10:25:25;100665.06;;;15.66;72.19
56042;BME280;48756;41.374;2.066;2023-02-23T10:27:52;100673.00;;;15.91;70.34
56042;BME280;48756;41.374;2.066;2023-02-23T10:33:05;100669.47;;;16.18;68.02
56042;BME280;48756;41.374;2.066;2023-02-23T10:35:36;100659.69;;;16.22;68.97
56042;BME280;48756;41.374;2.066;2023-02-23T10:38:03;100661.13;;;16.57;66.88
56042;BME280;48756;41.374;2.066;2023-02-23T10:40:31;100663.44;;;16.41;65.97
56042;BME280;48756;41.374;2.066;2023-02-23T10:43:01;100658.47;;;16.83;64.92
56042;BME280;48756;41.374;2.066;2023-02-23T10:45:28;100655.34;;;16.72;63.94
56042;BME280;48756;41.374;2.066;2023-02-23T10:47:59;100652.78;;;15.93;66.78
56042;BME280;48756;41.374;2.066;2023-02-23T10:50:25;100648.94;;;16.03;67.58
56042;BME280;48756;41.374;2.066;2023-02-23T10:52:56;100642.59;;;16.35;65.36
56042;BME280;48756;41.374;2.066;2023-02-23T10:55:29;100645.28;;;16.34;63.63
56042;BME280;48756;41.374;2.066;2023-02-23T11:00:29;100653.59;;;16.21;64.58
56042;BME280;48756;41.374;2.066;2023-02-23T11:02:58;100640.78;;;16.12;62.74
56042;BME280;48756;41.374;2.066;2023-02-23T11:05:44;100640.31;;;16.00;62.77
56042;BME280;48756;41.374;2.066;2023-02-23T11:08:17;100645.50;;;16.01;64.14
56042;BME280;48756;41.374;2.066;2023-02-23T11:13:34;100635.25;;;15.93;64.33
56042;BME280;48756;41.374;2.066;2023-02-23T11:16:02;100631.72;;;15.95;64.86
56042;BME280;48756;41.374;2.066;2023-02-23T11:18:29;100627.53;;;15.89;65.52
56042;BME280;48756;41.374;2.066;2023-02-23T11:20:54;100626.03;;;16.07;64.27
56042;BME280;48756;41.374;2.066;2023-02-23T11:23:29;100613.81;;;16.06;64.20
56042;BME280;48756;41.374;2.066;2023-02-23T11:26:01;100615.03;;;15.69;65.02
56042;BME280;48756;41.374;2.066;2023-02-23T11:31:01;100620.75;;;15.82;67.20
56042;BME280;48756;41.374;2.066;2023-02-23T11:33:31;100626.31;;;15.15;71.80
56042;BME280;48756;41.374;2.066;2023-02-23T11:36:13;100615.44;;;14.99;72.99
56042;BME280;48756;41.374;2.066;2023-02-23T11:38:39;100613.28;;;15.12;73.03
56042;BME280;48756;41.374;2.066;2023-02-23T11:41:21;100606.00;;;14.92;73.13
56042;BME280;48756;41.374;2.066;2023-02-23T11:43:49;100609.19;;;15.04;73.20
56042;BME280;48756;41.374;2.066;2023-02-23T11:46:15;100611.97;;;15.27;71.92
56042;BME280;48756;41.374;2.066;2023-02-23T11:48:52;100608.97;;;15.10;71.75
56042;BME280;48756;41.374;2.066;2023-02-23T11:51:29;100601.47;;;15.27;71.94
56042;BME280;48756;41.374;2.066;2023-02-23T11:53:56;100597.00;;;15.01;72.23
56042;BME280;48756;41.374;2.066;2023-02-23T11:56:23;100594.03;;;15.12;72.80
56042;BME280;48756;41.374;2.066;2023-02-23T11:59:16;100605.59;;;15.06;75.99
56042;BME280;48756;41.374;2.066;2023-02-23T12:01:53;100610.28;;;14.96;76.66
56042;BME280;48756;41.374;2.066;2023-02-23T12:04:28;100603.25;;;14.97;78.06
56042;BME280;48756;41.374;2.066;2023-02-23T12:07:25;100583.22;;;14.94;77.41
56042;BME280;48756;41.374;2.066;2023-02-23T12:12:29;100571.88;;;14.94;77.17
56042;BME280;48756;41.374;2.066;2023-02-23T12:15:03;100556.06;;;14.95;78.54
56042;BME280;48756;41.374;2.066;2023-02-23T12:17:39;100553.66;;;14.88;77.69
56042;BME280;48756;41.374;2.066;2023-02-23T12:20:21;100565.72;;;14.95;79.27
56042;BME280;48756;41.374;2.066;2023-02-23T12:23:19;100565.63;;;14.98;79.98
56042;BME280;48756;41.374;2.066;2023-02-23T12:28:24;100567.38;;;14.97;81.10
56042;BME280;48756;41.374;2.066;2023-02-23T12:31:05;100560.09;;;14.78;81.48
56042;BME280;48756;41.374;2.066;2023-02-23T12:33:43;100555.91;;;14.72;82.67
56042;BME280;48756;41.374;2.066;2023-02-23T12:36:34;100544.41;;;14.76;82.69
56042;BME280;48756;41.374;2.066;2023-02-23T12:41:36;100546.03;;;14.80;84.37
56042;BME280;48756;41.374;2.066;2023-02-23T12:47:00;100528.56;;;14.79;82.62
56042;BME280;48756;41.374;2.066;2023-02-23T12:54:33;100520.34;;;15.19;81.80
56042;BME280;48756;41.374;2.066;2023-02-23T12:59:50;100508.41;;;15.36;82.19
56042;BME280;48756;41.374;2.066;2023-02-23T13:11:05;100484.06;;;15.57;80.40
56042;BME280;48756;41.374;2.066;2023-02-23T13:13:58;100480.38;;;15.64;78.66
56042;BME280;48756;41.374;2.066;2023-02-23T13:16:42;100488.31;;;15.35;79.09
56042;BME280;48756;41.374;2.066;2023-02-23T13:19:31;100483.59;;;15.19;79.00
56042;BME280;48756;41.374;2.066;2023-02-23T13:24:36;100474.97;;;15.42;79.27
56042;BME280;48756;41.374;2.066;2023-02-23T13:29:35;100478.56;;;15.38;80.98
56042;BME280;48756;41.374;2.066;2023-02-23T13:32:07;100480.59;;;15.30;81.40
56042;BME280;48756;41.374;2.066;2023-02-23T13:34:49;100475.63;;;15.22;79.56
56042;BME280;48756;41.374;2.066;2023-02-23T13:37:19;100472.47;;;15.38;79.10
56042;BME280;48756;41.374;2.066;2023-02-23T13:39:58;100470.56;;;15.43;79.41
56042;BME280;48756;41.374;2.066;2023-02-23T13:42:38;100469.50;;;15.48;78.76
56042;BME280;48756;41.374;2.066;2023-02-23T13:48:15;100459.50;;;15.59;77.19
56042;BME280;48756;41.374;2.066;2023-02-23T13:53:41;100454.59;;;15.49;79.80
56042;BME280;48756;41.374;2.066;2023-02-23T13:56:17;100445.22;;;15.68;75.54
56042;BME280;48756;41.374;2.066;2023-02-23T13:58:57;100446.28;;;15.87;76.39
56042;BME280;48756;41.374;2.066;2023-02-23T14:01:32;100445.47;;;15.60;74.68
56042;BME280;48756;41.374;2.066;2023-02-23T14:04:05;100448.44;;;15.50;75.07
56042;BME280;48756;41.374;2.066;2023-02-23T14:06:38;100444.00;;;15.52;74.45
56042;BME280;48756;41.374;2.066;2023-02-23T14:09:11;100456.31;;;15.50;75.15
56042;BME280;48756;41.374;2.066;2023-02-23T14:11:47;100449.50;;;15.44;74.20
56042;BME280;48756;41.374;2.066;2023-02-23T14:14:38;100445.38;;;15.64;75.11
56042;BME280;48756;41.374;2.066;2023-02-23T14:22:35;100426.97;;;15.88;72.09
56042;BME280;48756;41.374;2.066;2023-02-23T14:27:58;100415.53;;;15.66;71.96
56042;BME280;48756;41.374;2.066;2023-02-23T14:30:28;100408.41;;;15.93;72.57
56042;BME280;48756;41.374;2.066;2023-02-23T14:32:54;100405.47;;;15.77;71.51
56042;BME280;48756;41.374;2.066;2023-02-23T14:37:59;100405.84;;;15.91;72.49
56042;BME280;48756;41.374;2.066;2023-02-23T14:40:32;100395.16;;;15.96;70.49
56042;BME280;48756;41.374;2.066;2023-02-23T14:43:00;100403.16;;;15.93;72.80
56042;BME280;48756;41.374;2.066;2023-02-23T14:45:29;100398.00;;;15.67;72.68
56042;BME280;48756;41.374;2.066;2023-02-23T14:48:00;100397.38;;;15.58;73.33
56042;BME280;48756;41.374;2.066;2023-02-23T14:50:32;100400.91;;;15.57;73.57
56042;BME280;48756;41.374;2.066;2023-02-23T14:52:58;100395.00;;;15.51;73.19
56042;BME280;48756;41.374;2.066;2023-02-23T14:55:33;100404.59;;;15.27;73.75
56042;BME280;48756;41.374;2.066;2023-02-23T14:58:03;100395.91;;;15.50;72.70